Time;durP1;ratioP1;P1;durP2;ratioP2;P2;SDS_P1;SDS_P2;PMS_P1;PMS_P2;Temp;Humidity;BMP_temperature;BMP_pressure;BME280_temperature;BME280_humidity;BME280_pressure;Samples;Min_cycle;Max_cycle;Signal;HPM_P1;HPM_P2
2023/07/03 00:01:58;;;;;;;11.57;8.53;;;;;;;;;;5032548;28;20446;-66
2023/07/03 00:04:24;;;;;;;14.60;7.83;;;;;;;;;;5032374;28;20443;-66
2023/07/03 00:06:50;;;;;;;16.70;9.20;;;;;;;;;;5032256;28;20920;-66
2023/07/03 00:09:16;;;;;;;11.60;8.80;;;;;;;;;;5032094;28;20503;-66
2023/07/03 00:11:44;;;;;;;11.20;8.40;;;;;;;;;;5032524;28;20426;-66
2023/07/03 00:14:13;;;;;;;13.70;8.30;;;;;;;;;;5032430;28;20467;-64
2023/07/03 00:16:39;;;;;;;11.07;8.00;;;;;;;;;;5032431;28;20464;-65
2023/07/03 00:19:05;;;;;;;12.00;8.67;;;;;;;;;;5032410;28;20460;-65
2023/07/03 00:21:31;;;;;;;13.73;8.23;;;;;;;;;;5030958;28;20444;-66
2023/07/03 00:23:57;;;;;;;13.17;8.53;;;;;;;;;;5032384;28;20516;-65
2023/07/03 00:26:23;;;;;;;12.70;8.80;;;;;;;;;;5032151;28;20419;-65
2023/07/03 00:28:49;;;;;;;12.83;8.60;;;;;;;;;;5032355;28;20861;-66
2023/07/03 00:31:15;;;;;;;17.17;8.70;;;;;;;;;;5032321;28;20446;-66
2023/07/03 00:33:41;;;;;;;10.70;8.40;;;;;;;;;;5032216;28;20434;-65
2023/07/03 00:36:07;;;;;;;11.23;7.67;;;;;;;;;;5032294;28;20497;-65
2023/07/03 00:38:33;;;;;;;9.23;8.23;;;;;;;;;;5032166;28;20532;-65
2023/07/03 00:40:59;;;;;;;9.67;8.67;;;;;;;;;;5032580;28;20420;-66
2023/07/03 00:43:26;;;;;;;8.57;7.30;;;;;;;;;;5030592;28;20419;-66
2023/07/03 00:45:52;;;;;;;10.67;7.90;;;;;;;;;;5032370;28;20790;-66
2023/07/03 00:48:18;;;;;;;13.40;8.30;;;;;;;;;;5032002;28;20466;-66
2023/07/03 00:50:47;;;;;;;10.37;7.73;;;;;;;;;;5032045;28;20450;-66
2023/07/03 00:53:15;;;;;;;10.43;8.27;;;;;;;;;;5032372;28;20435;-66
2023/07/03 00:55:41;;;;;;;11.00;8.03;;;;;;;;;;5033729;28;20414;-64
2023/07/03 00:58:09;;;;;;;10.43;7.33;;;;;;;;;;5035667;28;20436;-66
2023/07/03 01:00:40;;;;;;;10.53;8.73;;;;;;;;;;5034474;28;20411;-66
2023/07/03 01:03:19;;;;;;;8.93;7.60;;;;;;;;;;5034499;28;20439;-66
2023/07/03 01:05:49;;;;;;;15.87;9.00;;;;;;;;;;5035506;28;20963;-66
2023/07/03 01:08:15;;;;;;;12.17;8.07;;;;;;;;;;5035418;28;20573;-65
2023/07/03 01:10:41;;;;;;;12.20;7.47;;;;;;;;;;5035619;28;20409;-65
2023/07/03 01:13:09;;;;;;;12.47;8.40;;;;;;;;;;5035383;28;20447;-66
2023/07/03 01:15:39;;;;;;;14.40;8.70;;;;;;;;;;5034062;28;20409;-66
2023/07/03 01:18:06;;;;;;;11.27;8.17;;;;;;;;;;5035398;28;20448;-65
2023/07/03 01:20:35;;;;;;;13.30;8.47;;;;;;;;;;5035352;28;20409;-66
2023/07/03 01:23:19;;;;;;;13.10;8.13;;;;;;;;;;5035444;28;20451;-66
2023/07/03 01:25:49;;;;;;;15.30;8.83;;;;;;;;;;5034120;28;20504;-65
2023/07/03 01:28:16;;;;;;;9.70;8.13;;;;;;;;;;5034910;28;20861;-64
2023/07/03 01:30:43;;;;;;;13.43;8.77;;;;;;;;;;5035165;28;20959;-66
2023/07/03 01:33:14;;;;;;;14.40;8.60;;;;;;;;;;5035191;28;20474;-65
2023/07/03 01:35:40;;;;;;;13.30;8.40;;;;;;;;;;5034824;28;20904;-65
2023/07/03 01:38:09;;;;;;;8.67;7.53;;;;;;;;;;5035100;28;20441;-65
2023/07/03 01:40:38;;;;;;;21.27;9.50;;;;;;;;;;5034876;28;20439;-65
2023/07/03 01:43:04;;;;;;;11.50;8.80;;;;;;;;;;5034923;28;20429;-65
2023/07/03 01:45:34;;;;;;;13.90;9.13;;;;;;;;;;5034984;28;20419;-65
2023/07/03 01:48:00;;;;;;;14.17;8.53;;;;;;;;;;5034581;28;20769;-65
2023/07/03 01:50:27;;;;;;;9.63;7.77;;;;;;;;;;5034847;28;20777;-65
2023/07/03 01:52:55;;;;;;;15.40;8.27;;;;;;;;;;5033099;28;20423;-65
2023/07/03 01:55:39;;;;;;;14.23;8.80;;;;;;;;;;5035024;28;20424;-65
2023/07/03 01:58:09;;;;;;;13.00;8.50;;;;;;;;;;5034674;28;20962;-65
2023/07/03 02:00:37;;;;;;;12.93;8.70;;;;;;;;;;5034867;28;20404;-65
2023/07/03 02:03:07;;;;;;;16.13;8.90;;;;;;;;;;5034387;28;20412;-65
2023/07/03 02:05:36;;;;;;;9.90;7.80;;;;;;;;;;5034459;28;20437;-65
2023/07/03 02:08:05;;;;;;;18.83;9.60;;;;;;;;;;5034296;28;20411;-65
2023/07/03 02:10:31;;;;;;;11.87;8.70;;;;;;;;;;5034443;28;20470;-65
2023/07/03 02:12:57;;;;;;;19.10;9.10;;;;;;;;;;5034312;28;20837;-65
2023/07/03 02:15:23;;;;;;;18.37;9.23;;;;;;;;;;5034410;28;20409;-65
2023/07/03 02:17:53;;;;;;;17.50;8.90;;;;;;;;;;5033884;28;20624;-65
2023/07/03 02:20:21;;;;;;;13.77;9.13;;;;;;;;;;5033094;28;20419;-65
2023/07/03 02:22:47;;;;;;;16.87;9.00;;;;;;;;;;5034141;28;20945;-65
2023/07/03 02:25:15;;;;;;;18.23;9.33;;;;;;;;;;5034175;28;20419;-65
2023/07/03 02:27:44;;;;;;;13.10;9.10;;;;;;;;;;5034218;28;20918;-65
2023/07/03 02:30:11;;;;;;;17.40;10.17;;;;;;;;;;5033616;28;20842;-65
2023/07/03 02:32:38;;;;;;;19.57;9.23;;;;;;;;;;5033933;28;20903;-65
2023/07/03 02:35:04;;;;;;;15.70;8.40;;;;;;;;;;5033692;28;20470;-58
2023/07/03 02:37:30;;;;;;;14.17;8.37;;;;;;;;;;5033971;28;20811;-61
2023/07/03 02:39:56;;;;;;;15.63;9.03;;;;;;;;;;5033813;28;20442;-61
2023/07/03 02:42:22;;;;;;;17.53;9.07;;;;;;;;;;5034002;28;20410;-61
2023/07/03 02:44:48;;;;;;;13.77;8.50;;;;;;;;;;5033796;28;20451;-61
2023/07/03 02:47:14;;;;;;;13.47;8.80;;;;;;;;;;5033841;28;20403;-61
2023/07/03 02:49:40;;;;;;;27.20;9.57;;;;;;;;;;5033654;28;20875;-61
2023/07/03 02:52:07;;;;;;;18.00;9.50;;;;;;;;;;5032478;28;20506;-61
2023/07/03 02:54:33;;;;;;;13.10;9.17;;;;;;;;;;5033547;28;20446;-61
2023/07/03 02:56:58;;;;;;;13.80;8.60;;;;;;;;;;5033405;28;20417;-61
2023/07/03 02:59:24;;;;;;;18.37;9.20;;;;;;;;;;5033611;28;20438;-61
2023/07/03 03:01:50;;;;;;;12.80;8.50;;;;;;;;;;5032347;28;20745;-61
2023/07/03 03:04:19;;;;;;;14.97;8.90;;;;;;;;;;5033273;28;20929;-61
2023/07/03 03:06:45;;;;;;;16.23;9.30;;;;;;;;;;5033496;28;20423;-61
2023/07/03 03:09:11;;;;;;;15.60;9.17;;;;;;;;;;5033166;28;20471;-61
2023/07/03 03:11:39;;;;;;;14.70;9.10;;;;;;;;;;5033086;28;20997;-61
2023/07/03 03:14:05;;;;;;;16.97;8.67;;;;;;;;;;5033259;28;20513;-61
2023/07/03 03:16:31;;;;;;;15.17;8.70;;;;;;;;;;5033238;28;20414;-61
2023/07/03 03:18:57;;;;;;;14.60;8.80;;;;;;;;;;5032525;28;20833;-61
2023/07/03 03:21:23;;;;;;;14.20;8.70;;;;;;;;;;5033173;28;20417;-61
2023/07/03 03:23:50;;;;;;;15.43;8.90;;;;;;;;;;5033070;28;20477;-61
2023/07/03 03:26:15;;;;;;;18.37;8.13;;;;;;;;;;5031551;28;20421;-61
2023/07/03 03:28:41;;;;;;;13.23;7.80;;;;;;;;;;5030854;28;20878;-61
2023/07/03 03:31:10;;;;;;;12.77;8.20;;;;;;;;;;5031851;28;20414;-61
2023/07/03 03:33:36;;;;;;;15.43;8.63;;;;;;;;;;5032399;28;20423;-61
2023/07/03 03:36:02;;;;;;;18.33;8.70;;;;;;;;;;5032695;28;20415;-61
2023/07/03 03:38:28;;;;;;;16.27;8.90;;;;;;;;;;5032576;28;21003;-61
2023/07/03 03:40:58;;;;;;;18.90;8.47;;;;;;;;;;5032640;28;20422;-61
2023/07/03 03:43:24;;;;;;;12.03;8.77;;;;;;;;;;5032946;28;20506;-61
2023/07/03 03:45:56;;;;;;;19.20;9.73;;;;;;;;;;5032640;28;20439;-61
2023/07/03 03:48:23;;;;;;;15.40;9.10;;;;;;;;;;5032506;28;20524;-62
2023/07/03 03:50:49;;;;;;;15.20;8.10;;;;;;;;;;5032714;28;20444;-62
2023/07/03 03:53:15;;;;;;;14.97;9.13;;;;;;;;;;5032684;28;20414;-61
2023/07/03 03:55:41;;;;;;;17.93;8.73;;;;;;;;;;5032962;28;20418;-61
2023/07/03 03:58:10;;;;;;;14.87;8.87;;;;;;;;;;5032587;28;20549;-61
2023/07/03 04:00:37;;;;;;;13.53;8.80;;;;;;;;;;5032687;28;20434;-61
2023/07/03 04:03:05;;;;;;;17.63;8.80;;;;;;;;;;5032431;28;20848;-61
2023/07/03 04:05:31;;;;;;;21.07;9.33;;;;;;;;;;5032539;28;20533;-61
2023/07/03 04:07:57;;;;;;;17.70;8.70;;;;;;;;;;5032339;28;20461;-61
2023/07/03 04:10:23;;;;;;;15.87;8.30;;;;;;;;;;5032442;28;20438;-61
2023/07/03 04:12:52;;;;;;;26.93;9.80;;;;;;;;;;5032444;28;20957;-61
2023/07/03 04:15:20;;;;;;;14.23;8.40;;;;;;;;;;5032242;28;20433;-61
2023/07/03 04:17:46;;;;;;;13.63;8.93;;;;;;;;;;5032529;28;20418;-61
2023/07/03 04:20:16;;;;;;;27.83;18.27;;;;;;;;;;5032295;28;20446;-61
2023/07/03 04:22:42;;;;;;;12.87;9.30;;;;;;;;;;5032346;28;20961;-61
2023/07/03 04:25:09;;;;;;;25.13;9.60;;;;;;;;;;5032314;28;20446;-61
2023/07/03 04:27:35;;;;;;;11.80;8.30;;;;;;;;;;5032286;28;20429;-61
2023/07/03 04:30:04;;;;;;;13.03;8.23;;;;;;;;;;5032669;28;20473;-61
2023/07/03 04:32:30;;;;;;;15.43;9.20;;;;;;;;;;5036029;28;20407;-61
2023/07/03 04:34:57;;;;;;;13.50;9.47;;;;;;;;;;5036104;28;20532;-61
2023/07/03 04:37:26;;;;;;;19.90;8.97;;;;;;;;;;5035924;28;20440;-61
2023/07/03 04:39:52;;;;;;;13.00;9.30;;;;;;;;;;5036126;28;20465;-61
2023/07/03 04:42:18;;;;;;;11.47;8.67;;;;;;;;;;5035455;28;20473;-61
2023/07/03 04:44:47;;;;;;;16.90;8.40;;;;;;;;;;5035736;28;20442;-62
2023/07/03 04:47:16;;;;;;;18.03;9.07;;;;;;;;;;5036030;28;20437;-62
2023/07/03 04:49:42;;;;;;;17.13;9.23;;;;;;;;;;5034683;28;20474;-61
2023/07/03 04:52:11;;;;;;;22.97;10.90;;;;;;;;;;5036089;28;20448;-62
2023/07/03 04:54:37;;;;;;;16.70;8.80;;;;;;;;;;5035697;28;20425;-62
2023/07/03 04:57:03;;;;;;;21.37;10.27;;;;;;;;;;5034576;28;20997;-61
2023/07/03 04:59:31;;;;;;;18.70;9.57;;;;;;;;;;5035944;28;20405;-62
2023/07/03 05:01:57;;;;;;;16.77;9.20;;;;;;;;;;5035912;28;20429;-62
2023/07/03 05:04:26;;;;;;;18.80;10.50;;;;;;;;;;5034580;28;20438;-61
2023/07/03 05:06:52;;;;;;;27.53;9.37;;;;;;;;;;5035767;28;20501;-61
2023/07/03 05:09:18;;;;;;;13.73;8.87;;;;;;;;;;5035840;28;20506;-62
2023/07/03 05:11:44;;;;;;;14.43;8.73;;;;;;;;;;5035623;28;20429;-62
2023/07/03 05:14:10;;;;;;;19.33;9.20;;;;;;;;;;5035584;28;20419;-61
2023/07/03 05:16:36;;;;;;;12.87;9.43;;;;;;;;;;5035424;28;20410;-62
2023/07/03 05:19:02;;;;;;;11.63;8.70;;;;;;;;;;5035395;28;20894;-62
2023/07/03 05:21:28;;;;;;;15.23;8.63;;;;;;;;;;5035570;28;20423;-62
2023/07/03 05:23:54;;;;;;;17.87;9.43;;;;;;;;;;5035476;28;20426;-61
2023/07/03 05:26:24;;;;;;;16.30;9.60;;;;;;;;;;5035479;28;20446;-61
2023/07/03 05:28:50;;;;;;;14.43;8.37;;;;;;;;;;5035132;28;20968;-61
2023/07/03 05:31:16;;;;;;;14.80;9.20;;;;;;;;;;5035196;28;20469;-61
2023/07/03 05:33:42;;;;;;;15.70;8.27;;;;;;;;;;5035080;28;20404;-61
2023/07/03 05:36:08;;;;;;;17.23;8.43;;;;;;;;;;5035449;28;20507;-62
2023/07/03 05:38:34;;;;;;;13.57;8.83;;;;;;;;;;5035071;28;20401;-62
2023/07/03 05:41:03;;;;;;;15.80;8.70;;;;;;;;;;5034627;28;20419;-62
2023/07/03 05:43:29;;;;;;;20.23;9.00;;;;;;;;;;5035116;28;20514;-61
2023/07/03 05:45:55;;;;;;;14.47;9.53;;;;;;;;;;5034996;28;20436;-62
2023/07/03 05:48:23;;;;;;;16.77;9.33;;;;;;;;;;5035017;28;20829;-62
2023/07/03 05:50:52;;;;;;;25.63;9.83;;;;;;;;;;5033500;28;20799;-62
2023/07/03 05:53:20;;;;;;;15.50;9.23;;;;;;;;;;5033616;28;20417;-62
2023/07/03 05:55:56;;;;;;;17.93;9.93;;;;;;;;;;5034641;28;20443;-62
2023/07/03 05:58:22;;;;;;;12.53;9.07;;;;;;;;;;5034792;28;20446;-62
2023/07/03 06:00:48;;;;;;;18.23;8.80;;;;;;;;;;5034332;28;20490;-62
2023/07/03 06:03:15;;;;;;;12.70;8.63;;;;;;;;;;5035179;28;20407;-62
2023/07/03 06:05:41;;;;;;;14.00;8.90;;;;;;;;;;5034465;28;20456;-62
2023/07/03 06:08:07;;;;;;;22.23;9.50;;;;;;;;;;5034440;28;20430;-62
2023/07/03 06:10:33;;;;;;;13.07;8.90;;;;;;;;;;5034642;28;20415;-62
2023/07/03 06:12:59;;;;;;;17.50;8.20;;;;;;;;;;5034312;28;20445;-61
2023/07/03 06:15:25;;;;;;;12.73;9.00;;;;;;;;;;5034438;28;20431;-62
2023/07/03 06:17:55;;;;;;;16.37;8.10;;;;;;;;;;5034504;28;20499;-62
2023/07/03 06:20:21;;;;;;;15.70;7.80;;;;;;;;;;5034229;28;20419;-62
2023/07/03 06:22:47;;;;;;;16.43;9.50;;;;;;;;;;5034199;28;20401;-59
2023/07/03 06:25:13;;;;;;;15.63;8.80;;;;;;;;;;5034287;28;20429;-59
2023/07/03 06:27:39;;;;;;;14.80;9.30;;;;;;;;;;5034186;28;20447;-59
2023/07/03 06:30:06;;;;;;;15.20;8.77;;;;;;;;;;5034129;28;20473;-60
2023/07/03 06:32:32;;;;;;;15.00;9.17;;;;;;;;;;5034067;28;20424;-59
2023/07/03 06:34:58;;;;;;;15.83;8.73;;;;;;;;;;5033862;28;20773;-62
2023/07/03 06:37:23;;;;;;;17.60;8.30;;;;;;;;;;5033992;28;20442;-62
2023/07/03 06:39:52;;;;;;;18.20;9.17;;;;;;;;;;5033963;28;20849;-62
2023/07/03 06:42:18;;;;;;;12.67;9.07;;;;;;;;;;5033791;28;20449;-62
2023/07/03 06:44:44;;;;;;;15.23;8.80;;;;;;;;;;5033722;28;20519;-62
2023/07/03 06:47:10;;;;;;;14.90;8.90;;;;;;;;;;5033702;28;20931;-62
2023/07/03 06:49:37;;;;;;;14.30;8.67;;;;;;;;;;5033693;28;20910;-62
2023/07/03 06:52:03;;;;;;;16.93;9.60;;;;;;;;;;5033416;28;20491;-62
2023/07/03 06:54:29;;;;;;;16.43;9.67;;;;;;;;;;5033229;28;20409;-62
2023/07/03 06:56:55;;;;;;;13.83;9.47;;;;;;;;;;5033780;28;20535;-61
2023/07/03 06:59:21;;;;;;;19.83;8.93;;;;;;;;;;5033547;28;20405;-61
2023/07/03 07:01:47;;;;;;;16.47;9.43;;;;;;;;;;5033422;28;20416;-60
2023/07/03 07:04:13;;;;;;;17.40;9.33;;;;;;;;;;5033546;28;20875;-60
2023/07/03 07:06:40;;;;;;;18.40;10.17;;;;;;;;;;5031842;28;20436;-60
2023/07/03 07:09:06;;;;;;;16.17;8.93;;;;;;;;;;5033288;28;20477;-60
2023/07/03 07:11:33;;;;;;;18.07;8.23;;;;;;;;;;5033426;28;20886;-61
2023/07/03 07:14:00;;;;;;;15.80;9.60;;;;;;;;;;5033278;28;20445;-61
2023/07/03 07:16:31;;;;;;;14.37;8.53;;;;;;;;;;5031714;28;20421;-60
2023/07/03 07:18:59;;;;;;;15.80;9.13;;;;;;;;;;5033228;28;20402;-61
2023/07/03 07:21:25;;;;;;;15.90;8.70;;;;;;;;;;5033107;28;20423;-60
2023/07/03 07:23:53;;;;;;;14.73;8.70;;;;;;;;;;5033207;28;20399;-61
2023/07/03 07:26:22;;;;;;;15.17;8.10;;;;;;;;;;5033041;28;20420;-60
2023/07/03 07:28:48;;;;;;;17.43;8.97;;;;;;;;;;5033110;28;20466;-60
2023/07/03 07:31:20;;;;;;;17.17;9.27;;;;;;;;;;5032886;28;20532;-61
2023/07/03 07:33:46;;;;;;;14.93;8.73;;;;;;;;;;5033051;28;20414;-61
2023/07/03 07:36:13;;;;;;;15.50;8.90;;;;;;;;;;5032787;28;20420;-61
2023/07/03 07:38:39;;;;;;;16.77;9.30;;;;;;;;;;5032862;28;20414;-61
2023/07/03 07:41:05;;;;;;;13.40;8.03;;;;;;;;;;5032746;28;20917;-61
2023/07/03 07:43:39;;;;;;;20.13;9.43;;;;;;;;;;5032785;28;20475;-60
2023/07/03 07:46:05;;;;;;;15.50;8.70;;;;;;;;;;5032816;28;20492;-61
2023/07/03 07:48:31;;;;;;;15.47;9.67;;;;;;;;;;5032572;28;20561;-61
2023/07/03 07:50:57;;;;;;;15.97;8.70;;;;;;;;;;5032614;28;20411;-61
2023/07/03 07:53:23;;;;;;;18.13;9.60;;;;;;;;;;5032677;28;20441;-60
2023/07/03 07:55:49;;;;;;;14.17;9.10;;;;;;;;;;5032751;28;20918;-61
2023/07/03 07:58:17;;;;;;;17.20;8.50;;;;;;;;;;5032323;28;20431;-61
2023/07/03 08:00:46;;;;;;;16.03;8.33;;;;;;;;;;5032454;28;20441;-61
2023/07/03 08:03:12;;;;;;;19.77;8.77;;;;;;;;;;5032486;28;20479;-61
2023/07/03 08:05:38;;;;;;;17.00;7.93;;;;;;;;;;5032393;28;20421;-61
2023/07/03 08:08:05;;;;;;;22.23;8.30;;;;;;;;;;5032285;28;20439;-61
2023/07/03 08:10:36;;;;;;;14.47;7.80;;;;;;;;;;5032713;28;20418;-60
2023/07/03 08:13:02;;;;;;;13.43;7.73;;;;;;;;;;5032310;28;20944;-61
2023/07/03 08:15:33;;;;;;;14.17;7.60;;;;;;;;;;5032547;28;20412;-61
2023/07/03 08:17:59;;;;;;;14.53;7.43;;;;;;;;;;5032443;28;20432;-60
2023/07/03 08:20:25;;;;;;;19.23;8.50;;;;;;;;;;5032359;28;20742;-60
2023/07/03 08:22:53;;;;;;;18.20;7.60;;;;;;;;;;5032320;28;20420;-61
2023/07/03 08:25:20;;;;;;;16.27;8.17;;;;;;;;;;5032337;28;20561;-60
2023/07/03 08:27:49;;;;;;;15.30;7.93;;;;;;;;;;5032277;28;20522;-61
2023/07/03 08:30:15;;;;;;;15.50;7.90;;;;;;;;;;5032110;28;20955;-60
2023/07/03 08:32:43;;;;;;;16.53;7.73;;;;;;;;;;5032255;28;20812;-61
2023/07/03 08:35:09;;;;;;;15.60;7.60;;;;;;;;;;5032295;28;20413;-60
2023/07/03 08:37:35;;;;;;;11.30;7.23;;;;;;;;;;5032327;28;20497;-60
2023/07/03 08:40:01;;;;;;;13.43;7.40;;;;;;;;;;5032316;28;20920;-61
2023/07/03 08:42:34;;;;;;;19.07;7.90;;;;;;;;;;5032152;28;20423;-60
2023/07/03 08:45:01;;;;;;;13.43;7.57;;;;;;;;;;5030899;28;20995;-63
2023/07/03 08:47:29;;;;;;;14.67;7.00;;;;;;;;;;5032001;28;20421;-60
2023/07/03 08:49:57;;;;;;;19.17;7.70;;;;;;;;;;5032157;28;20566;-60
2023/07/03 08:52:27;;;;;;;13.13;6.83;;;;;;;;;;5031966;28;20443;-60
2023/07/03 08:54:53;;;;;;;19.17;7.83;;;;;;;;;;5032252;28;20403;-60
2023/07/03 08:57:23;;;;;;;17.27;8.27;;;;;;;;;;5030569;28;20484;-60
2023/07/03 08:59:49;;;;;;;13.73;7.30;;;;;;;;;;5032121;28;20789;-60
2023/07/03 09:02:15;;;;;;;14.97;7.70;;;;;;;;;;5031924;28;20456;-60
2023/07/03 09:04:43;;;;;;;16.83;7.20;;;;;;;;;;5031897;28;20426;-60
2023/07/03 09:07:15;;;;;;;12.87;7.10;;;;;;;;;;5031909;28;20417;-61
2023/07/03 09:10:00;;;;;;;10.93;6.80;;;;;;;;;;5031741;28;20572;-60
2023/07/03 09:12:34;;;;;;;11.50;6.90;;;;;;;;;;5031685;28;20419;-60
2023/07/03 09:15:20;;;;;;;14.27;6.90;;;;;;;;;;5031946;28;20398;-60
2023/07/03 09:17:46;;;;;;;16.53;7.07;;;;;;;;;;5034317;28;20454;-61
2023/07/03 09:20:15;;;;;;;13.83;8.00;;;;;;;;;;5035380;28;20421;-60
2023/07/03 09:23:11;;;;;;;16.20;7.37;;;;;;;;;;5035215;28;20420;-60
2023/07/03 09:25:50;;;;;;;12.13;6.50;;;;;;;;;;5034602;28;20503;-60
2023/07/03 09:28:16;;;;;;;12.53;6.80;;;;;;;;;;5035253;28;20933;-60
2023/07/03 09:30:42;;;;;;;11.30;6.40;;;;;;;;;;5035407;28;20835;-60
2023/07/03 09:33:10;;;;;;;13.60;7.50;;;;;;;;;;5035292;28;20466;-60
2023/07/03 09:35:40;;;;;;;14.63;6.80;;;;;;;;;;5034995;28;20476;-60
2023/07/03 09:38:20;;;;;;;12.07;6.87;;;;;;;;;;5035231;28;20433;-60
2023/07/03 09:40:49;;;;;;;10.93;6.30;;;;;;;;;;5035075;28;20490;-61
2023/07/03 09:43:17;;;;;;;12.90;6.50;;;;;;;;;;5035090;28;20414;-60
2023/07/03 09:45:44;;;;;;;9.37;6.17;;;;;;;;;;5035119;28;20488;-60
2023/07/03 09:48:12;;;;;;;12.23;6.53;;;;;;;;;;5034856;28;20447;-61
2023/07/03 09:50:39;;;;;;;11.63;5.93;;;;;;;;;;5034839;28;20497;-61
2023/07/03 09:53:06;;;;;;;12.20;6.43;;;;;;;;;;5034869;28;20434;-60
2023/07/03 09:55:32;;;;;;;10.63;5.33;;;;;;;;;;5034725;28;20426;-61
2023/07/03 09:57:59;;;;;;;9.53;5.93;;;;;;;;;;5034825;28;20460;-60
2023/07/03 10:00:26;;;;;;;9.57;5.63;;;;;;;;;;5034586;28;20508;-60
2023/07/03 10:02:55;;;;;;;10.30;5.80;;;;;;;;;;5034514;28;20472;-61
2023/07/03 10:05:30;;;;;;;14.10;6.67;;;;;;;;;;5034968;28;20403;-60
2023/07/03 10:08:00;;;;;;;12.80;6.70;;;;;;;;;;5034487;28;20441;-61
2023/07/03 10:10:28;;;;;;;8.30;5.13;;;;;;;;;;5034472;28;21013;-61
2023/07/03 10:13:03;;;;;;;12.10;5.40;;;;;;;;;;5034463;28;20477;-61
2023/07/03 10:15:34;;;;;;;11.20;5.87;;;;;;;;;;5034432;28;20413;-60
2023/07/03 10:18:02;;;;;;;13.33;5.80;;;;;;;;;;5034279;28;20466;-60
2023/07/03 10:20:35;;;;;;;10.37;5.50;;;;;;;;;;5034350;28;20411;-61
2023/07/03 10:23:04;;;;;;;6.43;4.50;;;;;;;;;;5034354;28;20483;-61
2023/07/03 10:25:42;;;;;;;10.50;4.60;;;;;;;;;;5034198;28;20983;-62
2023/07/03 10:28:12;;;;;;;12.80;5.70;;;;;;;;;;5034465;28;20396;-61
2023/07/03 10:30:42;;;;;;;14.77;5.70;;;;;;;;;;5034234;28;20433;-62
2023/07/03 10:33:14;;;;;;;7.40;5.33;;;;;;;;;;5033116;28;20408;-61
2023/07/03 10:35:42;;;;;;;8.63;5.17;;;;;;;;;;5034066;28;20969;-63
2023/07/03 10:38:27;;;;;;;10.93;5.60;;;;;;;;;;5033948;28;20453;-61
2023/07/03 10:40:58;;;;;;;10.50;6.10;;;;;;;;;;5033887;28;20492;-61
2023/07/03 10:43:25;;;;;;;9.53;5.23;;;;;;;;;;5033941;28;20513;-61
2023/07/03 10:45:51;;;;;;;7.63;5.10;;;;;;;;;;5034051;28;20498;-61
2023/07/03 10:48:23;;;;;;;8.00;5.13;;;;;;;;;;5033645;28;20424;-61
2023/07/03 10:50:52;;;;;;;8.33;4.90;;;;;;;;;;5033838;28;20476;-61
2023/07/03 10:53:23;;;;;;;7.90;5.40;;;;;;;;;;5033595;28;20478;-61
2023/07/03 10:55:55;;;;;;;11.33;5.40;;;;;;;;;;5033733;28;20407;-61
2023/07/03 10:58:27;;;;;;;8.97;5.30;;;;;;;;;;5033541;28;20420;-61
2023/07/03 11:01:03;;;;;;;8.23;4.43;;;;;;;;;;5033685;28;20473;-61
2023/07/03 11:03:35;;;;;;;5.63;4.77;;;;;;;;;;5033460;28;20404;-61
2023/07/03 11:06:06;;;;;;;5.40;4.13;;;;;;;;;;5033557;28;20412;-61
2023/07/03 11:08:47;;;;;;;5.27;4.20;;;;;;;;;;5033196;28;20477;-61
2023/07/03 11:11:22;;;;;;;9.97;5.13;;;;;;;;;;5033393;28;20423;-61
2023/07/03 11:13:54;;;;;;;7.57;4.43;;;;;;;;;;5033217;28;20413;-61
2023/07/03 11:16:24;;;;;;;4.07;3.70;;;;;;;;;;5033309;28;20411;-61
2023/07/03 11:18:53;;;;;;;6.50;4.20;;;;;;;;;;5033744;28;20446;-61
2023/07/03 11:21:22;;;;;;;9.93;4.77;;;;;;;;;;5033962;28;20478;-62
2023/07/03 11:24:00;;;;;;;6.93;4.30;;;;;;;;;;5033416;28;20436;-61
2023/07/03 11:26:32;;;;;;;7.40;3.87;;;;;;;;;;5033140;28;20443;-61
2023/07/03 11:28:58;;;;;;;5.00;4.20;;;;;;;;;;5032933;28;20471;-61
2023/07/03 11:31:28;;;;;;;4.23;3.90;;;;;;;;;;5033059;28;20439;-61
2023/07/03 11:33:54;;;;;;;6.90;4.10;;;;;;;;;;5032938;28;20866;-61
2023/07/03 11:36:34;;;;;;;8.43;3.80;;;;;;;;;;5033299;28;20505;-61
2023/07/03 11:39:29;;;;;;;6.37;3.60;;;;;;;;;;5032562;28;20435;-61
2023/07/03 11:42:01;;;;;;;5.37;3.67;;;;;;;;;;5032503;28;20523;-61
2023/07/03 11:44:38;;;;;;;3.63;3.33;;;;;;;;;;5032845;28;20972;-61
2023/07/03 11:47:08;;;;;;;7.87;4.03;;;;;;;;;;5033155;28;20524;-61
2023/07/03 11:49:39;;;;;;;4.20;3.90;;;;;;;;;;5032754;28;20468;-61
2023/07/03 11:52:06;;;;;;;5.40;4.10;;;;;;;;;;5032582;28;20820;-61
2023/07/03 11:54:36;;;;;;;8.90;4.57;;;;;;;;;;5032658;28;20986;-62
2023/07/03 11:57:10;;;;;;;6.80;4.13;;;;;;;;;;5032607;28;20424;-61
2023/07/03 11:59:40;;;;;;;4.57;4.17;;;;;;;;;;5032192;28;20441;-61
2023/07/03 12:02:12;;;;;;;4.30;3.80;;;;;;;;;;5032586;28;20425;-61
2023/07/03 12:04:45;;;;;;;7.73;4.60;;;;;;;;;;5032504;28;20415;-61
2023/07/03 12:07:30;;;;;;;7.87;4.20;;;;;;;;;;5032513;28;20450;-61
2023/07/03 12:10:32;;;;;;;9.70;3.93;;;;;;;;;;5032022;28;20574;-61
2023/07/03 12:13:16;;;;;;;4.83;4.37;;;;;;;;;;5030235;28;20428;-61
2023/07/03 12:15:42;;;;;;;9.03;3.90;;;;;;;;;;5032087;28;20434;-61
2023/07/03 12:18:08;;;;;;;5.83;4.43;;;;;;;;;;5032683;28;20412;-62
2023/07/03 12:20:35;;;;;;;3.83;3.60;;;;;;;;;;5032497;28;20433;-61
2023/07/03 12:23:01;;;;;;;3.90;3.50;;;;;;;;;;5032480;28;20488;-61
2023/07/03 12:25:28;;;;;;;5.67;3.70;;;;;;;;;;5031246;28;20527;-61
2023/07/03 12:27:55;;;;;;;6.40;3.90;;;;;;;;;;5032370;28;20412;-61
2023/07/03 12:30:24;;;;;;;7.83;3.80;;;;;;;;;;5032297;28;20484;-61
2023/07/03 12:32:53;;;;;;;5.30;4.67;;;;;;;;;;5031984;28;20838;-61
2023/07/03 12:35:23;;;;;;;5.00;4.03;;;;;;;;;;5032380;28;20436;-61
2023/07/03 12:37:53;;;;;;;4.77;4.20;;;;;;;;;;5032231;28;20427;-61
2023/07/03 12:40:19;;;;;;;4.13;3.83;;;;;;;;;;5032232;28;20432;-61
2023/07/03 12:42:46;;;;;;;3.73;3.40;;;;;;;;;;5032229;28;20432;-61
2023/07/03 12:45:15;;;;;;;8.47;3.97;;;;;;;;;;5032221;28;20465;-61
2023/07/03 12:47:43;;;;;;;6.07;3.60;;;;;;;;;;5032266;28;20425;-61
2023/07/03 12:50:13;;;;;;;5.60;3.70;;;;;;;;;;5032124;28;20469;-61
2023/07/03 12:52:42;;;;;;;6.67;3.80;;;;;;;;;;5035463;28;20418;-61
2023/07/03 12:55:11;;;;;;;9.83;4.20;;;;;;;;;;5035954;28;20501;-61
2023/07/03 12:57:37;;;;;;;6.10;3.83;;;;;;;;;;5035936;28;20772;-61
2023/07/03 13:00:06;;;;;;;13.20;4.37;;;;;;;;;;5035818;28;20854;-62
2023/07/03 13:02:35;;;;;;;3.90;3.57;;;;;;;;;;5035896;28;20421;-62
2023/07/03 13:05:01;;;;;;;7.80;3.83;;;;;;;;;;5036469;28;20439;-63
2023/07/03 13:07:27;;;;;;;9.23;3.60;;;;;;;;;;5035860;28;20920;-62
2023/07/03 13:09:54;;;;;;;6.43;3.93;;;;;;;;;;5036073;28;20509;-61
2023/07/03 13:12:21;;;;;;;3.93;3.60;;;;;;;;;;5034369;28;20461;-61
2023/07/03 13:15:00;;;;;;;3.60;3.30;;;;;;;;;;5035654;28;20419;-61
2023/07/03 13:17:28;;;;;;;6.10;3.60;;;;;;;;;;5035767;28;20725;-61
2023/07/03 13:19:54;;;;;;;6.40;3.90;;;;;;;;;;5035768;28;20439;-61
2023/07/03 13:22:20;;;;;;;6.93;3.63;;;;;;;;;;5035376;28;20448;-61
2023/07/03 13:24:50;;;;;;;9.63;3.67;;;;;;;;;;5035760;28;20473;-61
2023/07/03 13:27:21;;;;;;;5.90;3.27;;;;;;;;;;5034231;28;20506;-61
2023/07/03 13:29:47;;;;;;;5.07;3.23;;;;;;;;;;5035337;28;20560;-61
2023/07/03 13:32:15;;;;;;;4.17;3.60;;;;;;;;;;5035160;28;20427;-61
2023/07/03 13:34:55;;;;;;;5.30;3.13;;;;;;;;;;5035230;28;20502;-60
2023/07/03 13:37:25;;;;;;;6.17;3.83;;;;;;;;;;5035345;28;20424;-61
2023/07/03 13:39:52;;;;;;;7.03;3.57;;;;;;;;;;5034062;28;20793;-61
2023/07/03 13:42:18;;;;;;;3.80;3.17;;;;;;;;;;5034996;28;20421;-61
2023/07/03 13:44:46;;;;;;;6.30;3.83;;;;;;;;;;5035050;28;20419;-60
2023/07/03 13:47:12;;;;;;;3.37;3.20;;;;;;;;;;5035259;28;20777;-61
2023/07/03 13:49:39;;;;;;;3.70;3.27;;;;;;;;;;5033767;28;20491;-61
2023/07/03 13:52:06;;;;;;;6.83;3.10;;;;;;;;;;5035023;28;20415;-61
2023/07/03 13:54:32;;;;;;;4.20;3.63;;;;;;;;;;5035075;28;20468;-61
2023/07/03 13:56:58;;;;;;;3.40;3.13;;;;;;;;;;5034797;28;21084;-61
2023/07/03 13:59:27;;;;;;;5.87;3.43;;;;;;;;;;5034624;28;20423;-61
2023/07/03 14:01:53;;;;;;;4.00;3.60;;;;;;;;;;5034335;28;20419;-61
2023/07/03 14:04:19;;;;;;;7.00;3.20;;;;;;;;;;5034714;28;20823;-61
2023/07/03 14:06:45;;;;;;;3.10;2.73;;;;;;;;;;5034261;28;20412;-61
2023/07/03 14:09:11;;;;;;;9.50;2.77;;;;;;;;;;5034577;28;20585;-61
2023/07/03 14:11:37;;;;;;;3.33;2.90;;;;;;;;;;5034508;28;20977;-61
2023/07/03 14:14:04;;;;;;;5.03;3.50;;;;;;;;;;5034565;28;20432;-61
2023/07/03 14:16:31;;;;;;;5.77;3.07;;;;;;;;;;5034469;28;20890;-61
2023/07/03 14:18:57;;;;;;;3.23;2.87;;;;;;;;;;5034478;28;20480;-61
2023/07/03 14:21:24;;;;;;;3.07;2.77;;;;;;;;;;5034319;28;20493;-61
2023/07/03 14:23:50;;;;;;;6.33;2.80;;;;;;;;;;5033053;28;20427;-61
2023/07/03 14:26:17;;;;;;;2.87;2.67;;;;;;;;;;5034541;28;20438;-61
2023/07/03 14:28:44;;;;;;;7.43;2.90;;;;;;;;;;5034317;28;20472;-61
2023/07/03 14:31:13;;;;;;;2.93;2.80;;;;;;;;;;5034212;28;20433;-61
2023/07/03 14:33:39;;;;;;;2.60;2.40;;;;;;;;;;5033998;28;20926;-61
2023/07/03 14:36:05;;;;;;;4.50;2.37;;;;;;;;;;5034079;28;20419;-61
2023/07/03 14:38:31;;;;;;;2.67;2.57;;;;;;;;;;5034019;28;20406;-61
2023/07/03 14:40:58;;;;;;;2.87;2.50;;;;;;;;;;5034112;28;20443;-61